LFMU/BZR METAR and TAF weather

Enter ICAO airport designator
Station Type Date Time Source
LFMU METAR 2022/06/28 15:00 UTC NOAA

LFMU 281500Z AUTO 30013KT 260V330 CAVOK 31/12 Q1013 TEMPO 32015G25KT


Station Type Date Time Source
LFMU Decoded METAR 2022/06/28 15:00 UTC NOAA

Beziers / Vias, France (LFMU) 43-19N 003-21E
Jun 28, 2022 - 11:00 AM EDT / 2022.06.28 1500 UTC
Wind: from the WNW (300 degrees) at 15 MPH (13 KT) (direction variable):0
Visibility: greater than 7 mile(s):0
Temperature: 87 F (31 C)
Dew Point: 53 F (12 C)
Relative Humidity: 31%
Pressure (altimeter): 29.91 in. Hg (1013 hPa)
ob: LFMU 281500Z AUTO 30013KT 260V330 CAVOK 31/12 Q1013 TEMPO 32015G25KT
cycle: 15

Station Type Date Time Source
LFMU TAF 2022/06/28 15:26 UTC NOAA

TAF LFMU 281400Z 2815/2915 32010KT CAVOK PROB40
TEMPO 2815/2819 32015G25KT
BECMG 2818/2820 29008KT
BECMG 2910/2912 18012KT

Example: see airport list